sensor_id;sensor_type;location;lat;lon;timestamp;temperature;humidity
56478;DHT22;42382;53.210;5.772;2023-07-28T00:01:26;18.40;93.50
56478;DHT22;42382;53.210;5.772;2023-07-28T00:03:52;18.40;93.60
56478;DHT22;42382;53.210;5.772;2023-07-28T00:06:18;18.40;93.60
56478;DHT22;42382;53.210;5.772;2023-07-28T00:08:43;18.40;93.70
56478;DHT22;42382;53.210;5.772;2023-07-28T00:11:10;18.30;93.80
56478;DHT22;42382;53.210;5.772;2023-07-28T00:13:38;18.40;93.70
56478;DHT22;42382;53.210;5.772;2023-07-28T00:16:04;18.30;93.80
56478;DHT22;42382;53.210;5.772;2023-07-28T00:18:30;18.30;93.70
56478;DHT22;42382;53.210;5.772;2023-07-28T00:20:55;18.40;93.80
56478;DHT22;42382;53.210;5.772;2023-07-28T00:23:21;18.40;93.70
56478;DHT22;42382;53.210;5.772;2023-07-28T00:25:47;18.40;93.90
56478;DHT22;42382;53.210;5.772;2023-07-28T00:28:12;18.40;93.80
56478;DHT22;42382;53.210;5.772;2023-07-28T00:30:39;18.40;93.70
56478;DHT22;42382;53.210;5.772;2023-07-28T00:33:05;18.40;93.80
56478;DHT22;42382;53.210;5.772;2023-07-28T00:35:31;18.40;93.80
56478;DHT22;42382;53.210;5.772;2023-07-28T00:37:56;18.40;93.80
56478;DHT22;42382;53.210;5.772;2023-07-28T00:40:22;18.40;93.80
56478;DHT22;42382;53.210;5.772;2023-07-28T00:42:49;18.30;93.80
56478;DHT22;42382;53.210;5.772;2023-07-28T00:45:14;18.30;93.80
56478;DHT22;42382;53.210;5.772;2023-07-28T00:47:40;18.30;93.80
56478;DHT22;42382;53.210;5.772;2023-07-28T00:50:08;18.30;93.70
56478;DHT22;42382;53.210;5.772;2023-07-28T00:52:35;18.30;93.80
56478;DHT22;42382;53.210;5.772;2023-07-28T00:55:01;18.30;93.70
56478;DHT22;42382;53.210;5.772;2023-07-28T00:57:27;18.30;93.80
56478;DHT22;42382;53.210;5.772;2023-07-28T00:59:53;18.30;94.00
56478;DHT22;42382;53.210;5.772;2023-07-28T01:02:20;18.30;93.80
56478;DHT22;42382;53.210;5.772;2023-07-28T01:04:47;18.30;93.90
56478;DHT22;42382;53.210;5.772;2023-07-28T01:07:27;18.30;93.90
56478;DHT22;42382;53.210;5.772;2023-07-28T01:10:26;18.30;93.90
56478;DHT22;42382;53.210;5.772;2023-07-28T01:12:53;18.30;93.90
56478;DHT22;42382;53.210;5.772;2023-07-28T01:15:19;18.30;93.80
56478;DHT22;42382;53.210;5.772;2023-07-28T01:17:45;18.30;93.90
56478;DHT22;42382;53.210;5.772;2023-07-28T01:20:11;18.30;94.00
56478;DHT22;42382;53.210;5.772;2023-07-28T01:25:43;18.30;93.90
56478;DHT22;42382;53.210;5.772;2023-07-28T01:28:10;18.30;93.90
56478;DHT22;42382;53.210;5.772;2023-07-28T01:30:38;18.30;93.80
56478;DHT22;42382;53.210;5.772;2023-07-28T01:33:06;18.30;93.90
56478;DHT22;42382;53.210;5.772;2023-07-28T01:35:33;18.30;93.80
56478;DHT22;42382;53.210;5.772;2023-07-28T01:37:58;18.30;93.80
56478;DHT22;42382;53.210;5.772;2023-07-28T01:40:24;18.30;93.80
56478;DHT22;42382;53.210;5.772;2023-07-28T01:42:49;18.30;93.80
56478;DHT22;42382;53.210;5.772;2023-07-28T01:45:15;18.30;93.70
56478;DHT22;42382;53.210;5.772;2023-07-28T01:47:41;18.30;93.80
56478;DHT22;42382;53.210;5.772;2023-07-28T01:50:06;18.30;93.80
56478;DHT22;42382;53.210;5.772;2023-07-28T01:52:32;18.30;93.80
56478;DHT22;42382;53.210;5.772;2023-07-28T01:54:58;18.30;93.70
56478;DHT22;42382;53.210;5.772;2023-07-28T01:57:23;18.30;93.70
56478;DHT22;42382;53.210;5.772;2023-07-28T01:59:55;18.30;93.80
56478;DHT22;42382;53.210;5.772;2023-07-28T02:02:21;18.20;93.70
56478;DHT22;42382;53.210;5.772;2023-07-28T02:04:47;18.30;93.80
56478;DHT22;42382;53.210;5.772;2023-07-28T02:07:12;18.30;93.70
56478;DHT22;42382;53.210;5.772;2023-07-28T02:09:38;18.30;93.70
56478;DHT22;42382;53.210;5.772;2023-07-28T02:12:03;18.30;93.80
56478;DHT22;42382;53.210;5.772;2023-07-28T02:14:29;18.30;93.80
56478;DHT22;42382;53.210;5.772;2023-07-28T02:16:55;18.30;93.80
56478;DHT22;42382;53.210;5.772;2023-07-28T02:19:20;18.20;93.70
56478;DHT22;42382;53.210;5.772;2023-07-28T02:21:46;18.20;93.80
56478;DHT22;42382;53.210;5.772;2023-07-28T02:24:11;18.30;93.70
56478;DHT22;42382;53.210;5.772;2023-07-28T02:26:37;18.30;93.70
56478;DHT22;42382;53.210;5.772;2023-07-28T02:29:03;18.30;93.70
56478;DHT22;42382;53.210;5.772;2023-07-28T02:31:28;18.30;93.80
56478;DHT22;42382;53.210;5.772;2023-07-28T02:33:55;18.30;93.80
56478;DHT22;42382;53.210;5.772;2023-07-28T02:36:20;18.30;93.80
56478;DHT22;42382;53.210;5.772;2023-07-28T02:38:46;18.30;93.80
56478;DHT22;42382;53.210;5.772;2023-07-28T02:41:12;18.20;93.70
56478;DHT22;42382;53.210;5.772;2023-07-28T02:43:37;18.30;93.70
56478;DHT22;42382;53.210;5.772;2023-07-28T02:46:03;18.20;93.70
56478;DHT22;42382;53.210;5.772;2023-07-28T02:48:29;18.20;93.70
56478;DHT22;42382;53.210;5.772;2023-07-28T02:50:54;18.30;93.70
56478;DHT22;42382;53.210;5.772;2023-07-28T02:53:20;18.30;93.70
56478;DHT22;42382;53.210;5.772;2023-07-28T02:55:47;18.20;93.70
56478;DHT22;42382;53.210;5.772;2023-07-28T02:58:13;18.20;93.70
56478;DHT22;42382;53.210;5.772;2023-07-28T03:00:39;18.30;93.70
56478;DHT22;42382;53.210;5.772;2023-07-28T03:03:06;18.20;93.70
56478;DHT22;42382;53.210;5.772;2023-07-28T03:05:32;18.20;93.70
56478;DHT22;42382;53.210;5.772;2023-07-28T03:07:58;18.30;93.70
56478;DHT22;42382;53.210;5.772;2023-07-28T03:10:24;18.30;93.70
56478;DHT22;42382;53.210;5.772;2023-07-28T03:12:50;18.30;93.70
56478;DHT22;42382;53.210;5.772;2023-07-28T03:15:16;18.30;93.70
56478;DHT22;42382;53.210;5.772;2023-07-28T03:17:41;18.30;93.70
56478;DHT22;42382;53.210;5.772;2023-07-28T03:20:07;18.30;93.70
56478;DHT22;42382;53.210;5.772;2023-07-28T03:22:33;18.30;93.70
56478;DHT22;42382;53.210;5.772;2023-07-28T03:24:59;18.30;93.70
56478;DHT22;42382;53.210;5.772;2023-07-28T03:27:25;18.30;93.70
56478;DHT22;42382;53.210;5.772;2023-07-28T03:29:51;18.30;93.70
56478;DHT22;42382;53.210;5.772;2023-07-28T03:32:16;18.20;93.70
56478;DHT22;42382;53.210;5.772;2023-07-28T03:34:43;18.30;93.70
56478;DHT22;42382;53.210;5.772;2023-07-28T03:37:09;18.20;93.70
56478;DHT22;42382;53.210;5.772;2023-07-28T03:39:34;18.30;93.70
56478;DHT22;42382;53.210;5.772;2023-07-28T03:42:00;18.20;93.70
56478;DHT22;42382;53.210;5.772;2023-07-28T03:44:26;18.20;93.70
56478;DHT22;42382;53.210;5.772;2023-07-28T03:46:53;18.20;93.60
56478;DHT22;42382;53.210;5.772;2023-07-28T03:49:18;18.20;93.70
56478;DHT22;42382;53.210;5.772;2023-07-28T03:51:44;18.20;93.60
56478;DHT22;42382;53.210;5.772;2023-07-28T03:54:10;18.20;93.70
56478;DHT22;42382;53.210;5.772;2023-07-28T03:56:35;18.20;93.60
56478;DHT22;42382;53.210;5.772;2023-07-28T03:59:01;18.20;93.60
56478;DHT22;42382;53.210;5.772;2023-07-28T04:01:26;18.20;93.60
56478;DHT22;42382;53.210;5.772;2023-07-28T04:03:52;18.20;93.60
56478;DHT22;42382;53.210;5.772;2023-07-28T04:06:18;18.20;93.60
56478;DHT22;42382;53.210;5.772;2023-07-28T04:08:43;18.20;93.70
56478;DHT22;42382;53.210;5.772;2023-07-28T04:11:10;18.20;93.70
56478;DHT22;42382;53.210;5.772;2023-07-28T04:13:36;18.10;93.70
56478;DHT22;42382;53.210;5.772;2023-07-28T04:16:02;18.10;93.60
56478;DHT22;42382;53.210;5.772;2023-07-28T04:18:27;18.10;93.60
56478;DHT22;42382;53.210;5.772;2023-07-28T04:20:53;18.20;93.60
56478;DHT22;42382;53.210;5.772;2023-07-28T04:23:19;18.20;93.60
56478;DHT22;42382;53.210;5.772;2023-07-28T04:25:44;18.20;93.60
56478;DHT22;42382;53.210;5.772;2023-07-28T04:28:10;18.20;93.50
56478;DHT22;42382;53.210;5.772;2023-07-28T04:30:36;18.20;93.50
56478;DHT22;42382;53.210;5.772;2023-07-28T04:33:01;18.20;93.50
56478;DHT22;42382;53.210;5.772;2023-07-28T04:35:30;18.20;93.50
56478;DHT22;42382;53.210;5.772;2023-07-28T04:37:55;18.20;93.50
56478;DHT22;42382;53.210;5.772;2023-07-28T04:40:21;18.20;93.40
56478;DHT22;42382;53.210;5.772;2023-07-28T04:42:46;18.10;93.50
56478;DHT22;42382;53.210;5.772;2023-07-28T04:45:12;18.10;93.50
56478;DHT22;42382;53.210;5.772;2023-07-28T04:47:38;18.10;93.50
56478;DHT22;42382;53.210;5.772;2023-07-28T04:50:03;18.10;93.40
56478;DHT22;42382;53.210;5.772;2023-07-28T04:52:29;18.10;93.40
56478;DHT22;42382;53.210;5.772;2023-07-28T04:54:55;18.10;93.40
56478;DHT22;42382;53.210;5.772;2023-07-28T04:57:20;18.20;93.40
56478;DHT22;42382;53.210;5.772;2023-07-28T04:59:46;18.20;93.40
56478;DHT22;42382;53.210;5.772;2023-07-28T05:02:12;18.20;93.40
56478;DHT22;42382;53.210;5.772;2023-07-28T05:04:37;18.20;93.40
56478;DHT22;42382;53.210;5.772;2023-07-28T05:07:04;18.30;93.40
56478;DHT22;42382;53.210;5.772;2023-07-28T05:09:29;18.30;93.40
56478;DHT22;42382;53.210;5.772;2023-07-28T05:11:55;18.30;93.40
56478;DHT22;42382;53.210;5.772;2023-07-28T05:14:21;18.30;93.40
56478;DHT22;42382;53.210;5.772;2023-07-28T05:16:46;18.30;93.40
56478;DHT22;42382;53.210;5.772;2023-07-28T05:19:12;18.40;93.40
56478;DHT22;42382;53.210;5.772;2023-07-28T05:21:38;18.40;93.30
56478;DHT22;42382;53.210;5.772;2023-07-28T05:24:04;18.40;93.30
56478;DHT22;42382;53.210;5.772;2023-07-28T05:26:30;18.40;93.30
56478;DHT22;42382;53.210;5.772;2023-07-28T05:28:55;18.40;93.30
56478;DHT22;42382;53.210;5.772;2023-07-28T05:31:21;18.40;93.20
56478;DHT22;42382;53.210;5.772;2023-07-28T05:33:47;18.40;93.20
56478;DHT22;42382;53.210;5.772;2023-07-28T05:36:12;18.40;93.20
56478;DHT22;42382;53.210;5.772;2023-07-28T05:38:38;18.40;93.10
56478;DHT22;42382;53.210;5.772;2023-07-28T05:41:04;18.40;93.10
56478;DHT22;42382;53.210;5.772;2023-07-28T05:43:31;18.40;93.10
56478;DHT22;42382;53.210;5.772;2023-07-28T05:45:57;18.30;93.10
56478;DHT22;42382;53.210;5.772;2023-07-28T05:48:23;18.40;93.10
56478;DHT22;42382;53.210;5.772;2023-07-28T05:50:49;18.40;93.00
56478;DHT22;42382;53.210;5.772;2023-07-28T05:53:17;18.30;92.90
56478;DHT22;42382;53.210;5.772;2023-07-28T05:55:42;18.30;93.00
56478;DHT22;42382;53.210;5.772;2023-07-28T05:58:08;18.30;93.00
56478;DHT22;42382;53.210;5.772;2023-07-28T06:00:33;18.40;92.90
56478;DHT22;42382;53.210;5.772;2023-07-28T06:02:59;18.40;93.00
56478;DHT22;42382;53.210;5.772;2023-07-28T06:05:25;18.40;92.90
56478;DHT22;42382;53.210;5.772;2023-07-28T06:07:50;18.40;92.90
56478;DHT22;42382;53.210;5.772;2023-07-28T06:10:16;18.40;92.90
56478;DHT22;42382;53.210;5.772;2023-07-28T06:12:41;18.50;92.90
56478;DHT22;42382;53.210;5.772;2023-07-28T06:15:07;18.50;92.90
56478;DHT22;42382;53.210;5.772;2023-07-28T06:17:33;18.50;92.90
56478;DHT22;42382;53.210;5.772;2023-07-28T06:19:59;18.60;92.90
56478;DHT22;42382;53.210;5.772;2023-07-28T06:22:24;18.50;92.80
56478;DHT22;42382;53.210;5.772;2023-07-28T06:24:50;18.50;92.60
56478;DHT22;42382;53.210;5.772;2023-07-28T06:27:16;18.50;92.60
56478;DHT22;42382;53.210;5.772;2023-07-28T06:29:41;18.50;92.60
56478;DHT22;42382;53.210;5.772;2023-07-28T06:32:07;18.60;92.60
56478;DHT22;42382;53.210;5.772;2023-07-28T06:34:36;18.60;92.50
56478;DHT22;42382;53.210;5.772;2023-07-28T06:37:02;18.60;92.50
56478;DHT22;42382;53.210;5.772;2023-07-28T06:39:27;18.60;92.50
56478;DHT22;42382;53.210;5.772;2023-07-28T06:42:21;18.60;92.40
56478;DHT22;42382;53.210;5.772;2023-07-28T06:44:53;18.60;92.40
56478;DHT22;42382;53.210;5.772;2023-07-28T06:47:18;18.60;92.40
56478;DHT22;42382;53.210;5.772;2023-07-28T06:49:44;18.60;92.40
56478;DHT22;42382;53.210;5.772;2023-07-28T06:52:10;18.70;92.50
56478;DHT22;42382;53.210;5.772;2023-07-28T06:54:36;18.80;92.50
56478;DHT22;42382;53.210;5.772;2023-07-28T06:57:02;18.80;92.50
56478;DHT22;42382;53.210;5.772;2023-07-28T06:59:28;18.90;92.40
56478;DHT22;42382;53.210;5.772;2023-07-28T07:01:53;18.90;92.40
56478;DHT22;42382;53.210;5.772;2023-07-28T07:04:19;18.90;92.30
56478;DHT22;42382;53.210;5.772;2023-07-28T07:06:45;18.90;92.20
56478;DHT22;42382;53.210;5.772;2023-07-28T07:09:11;19.00;92.10
56478;DHT22;42382;53.210;5.772;2023-07-28T07:11:40;18.90;92.00
56478;DHT22;42382;53.210;5.772;2023-07-28T07:14:06;18.90;92.00
56478;DHT22;42382;53.210;5.772;2023-07-28T07:16:34;19.00;91.80
56478;DHT22;42382;53.210;5.772;2023-07-28T07:19:00;18.90;91.60
56478;DHT22;42382;53.210;5.772;2023-07-28T07:21:27;18.90;91.60
56478;DHT22;42382;53.210;5.772;2023-07-28T07:23:53;18.90;91.60
56478;DHT22;42382;53.210;5.772;2023-07-28T07:26:18;18.90;91.70
56478;DHT22;42382;53.210;5.772;2023-07-28T07:28:44;18.90;91.70
56478;DHT22;42382;53.210;5.772;2023-07-28T07:31:16;19.00;91.80
56478;DHT22;42382;53.210;5.772;2023-07-28T07:33:42;19.00;91.60
56478;DHT22;42382;53.210;5.772;2023-07-28T07:36:18;19.00;91.50
56478;DHT22;42382;53.210;5.772;2023-07-28T07:38:44;19.00;91.50
56478;DHT22;42382;53.210;5.772;2023-07-28T07:41:15;19.00;91.50
56478;DHT22;42382;53.210;5.772;2023-07-28T07:43:48;19.00;91.50
56478;DHT22;42382;53.210;5.772;2023-07-28T07:46:15;19.10;91.50
56478;DHT22;42382;53.210;5.772;2023-07-28T07:48:41;19.10;91.40
56478;DHT22;42382;53.210;5.772;2023-07-28T07:51:07;19.10;91.40
56478;DHT22;42382;53.210;5.772;2023-07-28T07:53:34;19.10;91.30
56478;DHT22;42382;53.210;5.772;2023-07-28T07:56:02;19.10;91.30
56478;DHT22;42382;53.210;5.772;2023-07-28T07:58:28;19.20;91.30
56478;DHT22;42382;53.210;5.772;2023-07-28T08:00:55;19.20;91.10
56478;DHT22;42382;53.210;5.772;2023-07-28T08:03:20;19.30;91.00
56478;DHT22;42382;53.210;5.772;2023-07-28T08:05:46;19.30;91.00
56478;DHT22;42382;53.210;5.772;2023-07-28T08:08:11;19.40;90.90
56478;DHT22;42382;53.210;5.772;2023-07-28T08:10:39;19.40;90.40
56478;DHT22;42382;53.210;5.772;2023-07-28T08:13:07;19.30;90.60
56478;DHT22;42382;53.210;5.772;2023-07-28T08:15:36;19.30;90.30
56478;DHT22;42382;53.210;5.772;2023-07-28T08:18:01;19.40;90.30
56478;DHT22;42382;53.210;5.772;2023-07-28T08:20:27;19.40;90.10
56478;DHT22;42382;53.210;5.772;2023-07-28T08:22:53;19.40;90.20
56478;DHT22;42382;53.210;5.772;2023-07-28T08:25:19;19.50;90.40
56478;DHT22;42382;53.210;5.772;2023-07-28T08:27:45;19.60;90.30
56478;DHT22;42382;53.210;5.772;2023-07-28T08:30:11;19.80;90.40
56478;DHT22;42382;53.210;5.772;2023-07-28T08:32:37;20.30;90.50
56478;DHT22;42382;53.210;5.772;2023-07-28T08:35:03;21.10;89.80
56478;DHT22;42382;53.210;5.772;2023-07-28T08:37:29;21.80;87.10
56478;DHT22;42382;53.210;5.772;2023-07-28T08:39:55;21.90;85.70
56478;DHT22;42382;53.210;5.772;2023-07-28T08:42:21;21.90;85.70
56478;DHT22;42382;53.210;5.772;2023-07-28T08:44:48;21.90;84.60
56478;DHT22;42382;53.210;5.772;2023-07-28T08:47:17;21.80;85.10
56478;DHT22;42382;53.210;5.772;2023-07-28T08:49:43;21.70;84.40
56478;DHT22;42382;53.210;5.772;2023-07-28T08:52:08;21.80;84.90
56478;DHT22;42382;53.210;5.772;2023-07-28T08:54:34;21.80;84.60
56478;DHT22;42382;53.210;5.772;2023-07-28T08:57:00;21.80;83.20
56478;DHT22;42382;53.210;5.772;2023-07-28T08:59:27;21.70;82.70
56478;DHT22;42382;53.210;5.772;2023-07-28T09:01:55;21.60;82.50
56478;DHT22;42382;53.210;5.772;2023-07-28T09:04:24;21.60;83.50
56478;DHT22;42382;53.210;5.772;2023-07-28T09:06:50;21.90;83.10
56478;DHT22;42382;53.210;5.772;2023-07-28T09:09:19;22.20;83.10
56478;DHT22;42382;53.210;5.772;2023-07-28T09:14:12;22.80;81.50
56478;DHT22;42382;53.210;5.772;2023-07-28T09:16:38;23.00;81.10
56478;DHT22;42382;53.210;5.772;2023-07-28T09:19:05;23.20;79.80
56478;DHT22;42382;53.210;5.772;2023-07-28T09:21:32;23.30;78.00
56478;DHT22;42382;53.210;5.772;2023-07-28T09:24:00;23.10;77.70
56478;DHT22;42382;53.210;5.772;2023-07-28T09:26:43;23.10;77.90
56478;DHT22;42382;53.210;5.772;2023-07-28T09:29:22;23.00;76.60
56478;DHT22;42382;53.210;5.772;2023-07-28T09:31:50;23.00;77.50
56478;DHT22;42382;53.210;5.772;2023-07-28T09:34:27;23.10;78.20
56478;DHT22;42382;53.210;5.772;2023-07-28T09:36:54;23.10;77.70
56478;DHT22;42382;53.210;5.772;2023-07-28T09:39:20;22.90;76.70
56478;DHT22;42382;53.210;5.772;2023-07-28T09:41:46;22.70;77.40
56478;DHT22;42382;53.210;5.772;2023-07-28T09:44:13;22.60;78.00
56478;DHT22;42382;53.210;5.772;2023-07-28T09:46:53;22.70;78.80
56478;DHT22;42382;53.210;5.772;2023-07-28T09:49:27;22.90;77.90
56478;DHT22;42382;53.210;5.772;2023-07-28T09:51:54;23.10;78.50
56478;DHT22;42382;53.210;5.772;2023-07-28T09:54:25;23.70;79.30
56478;DHT22;42382;53.210;5.772;2023-07-28T09:56:58;24.20;77.80
56478;DHT22;42382;53.210;5.772;2023-07-28T09:59:29;24.40;75.00
56478;DHT22;42382;53.210;5.772;2023-07-28T10:01:58;24.40;72.50
56478;DHT22;42382;53.210;5.772;2023-07-28T10:04:25;24.30;73.30
56478;DHT22;42382;53.210;5.772;2023-07-28T10:06:53;24.30;73.80
56478;DHT22;42382;53.210;5.772;2023-07-28T10:09:25;24.40;72.90
56478;DHT22;42382;53.210;5.772;2023-07-28T10:11:52;24.60;72.80
56478;DHT22;42382;53.210;5.772;2023-07-28T10:14:28;24.60;71.30
56478;DHT22;42382;53.210;5.772;2023-07-28T10:16:59;24.70;72.00
56478;DHT22;42382;53.210;5.772;2023-07-28T10:19:25;24.70;71.10
56478;DHT22;42382;53.210;5.772;2023-07-28T10:22:01;24.70;71.10
56478;DHT22;42382;53.210;5.772;2023-07-28T10:24:49;24.70;71.10
56478;DHT22;42382;53.210;5.772;2023-07-28T10:30:01;25.20;70.80
56478;DHT22;42382;53.210;5.772;2023-07-28T10:32:29;25.40;69.60
56478;DHT22;42382;53.210;5.772;2023-07-28T10:37:37;25.70;68.70
56478;DHT22;42382;53.210;5.772;2023-07-28T10:42:57;25.90;66.30
56478;DHT22;42382;53.210;5.772;2023-07-28T10:45:25;25.90;66.80
56478;DHT22;42382;53.210;5.772;2023-07-28T10:47:52;25.90;65.60
56478;DHT22;42382;53.210;5.772;2023-07-28T10:50:20;25.80;66.20
56478;DHT22;42382;53.210;5.772;2023-07-28T10:52:46;25.90;66.50
56478;DHT22;42382;53.210;5.772;2023-07-28T10:57:44;26.00;65.90
56478;DHT22;42382;53.210;5.772;2023-07-28T11:00:15;25.80;64.20
56478;DHT22;42382;53.210;5.772;2023-07-28T11:02:45;25.80;65.70
56478;DHT22;42382;53.210;5.772;2023-07-28T11:05:12;26.10;65.50
56478;DHT22;42382;53.210;5.772;2023-07-28T11:07:45;26.00;63.90
56478;DHT22;42382;53.210;5.772;2023-07-28T11:10:11;26.10;64.60
56478;DHT22;42382;53.210;5.772;2023-07-28T11:12:42;26.10;64.30
56478;DHT22;42382;53.210;5.772;2023-07-28T11:15:09;26.20;64.30
56478;DHT22;42382;53.210;5.772;2023-07-28T11:17:43;26.30;63.50
56478;DHT22;42382;53.210;5.772;2023-07-28T11:20:23;26.20;63.70
56478;DHT22;42382;53.210;5.772;2023-07-28T11:22:56;26.20;62.90
56478;DHT22;42382;53.210;5.772;2023-07-28T11:25:23;26.20;63.60
56478;DHT22;42382;53.210;5.772;2023-07-28T11:27:50;26.10;64.00
56478;DHT22;42382;53.210;5.772;2023-07-28T11:30:17;26.10;64.60
56478;DHT22;42382;53.210;5.772;2023-07-28T11:32:45;26.30;64.90
56478;DHT22;42382;53.210;5.772;2023-07-28T11:35:12;26.40;63.10
56478;DHT22;42382;53.210;5.772;2023-07-28T11:37:40;26.40;63.70
56478;DHT22;42382;53.210;5.772;2023-07-28T11:40:07;26.40;62.50
56478;DHT22;42382;53.210;5.772;2023-07-28T11:43:00;26.20;63.30
56478;DHT22;42382;53.210;5.772;2023-07-28T11:45:26;26.10;62.70
56478;DHT22;42382;53.210;5.772;2023-07-28T11:47:55;25.90;60.30
56478;DHT22;42382;53.210;5.772;2023-07-28T11:50:29;25.80;61.20
56478;DHT22;42382;53.210;5.772;2023-07-28T11:52:58;25.80;60.00
56478;DHT22;42382;53.210;5.772;2023-07-28T11:55:24;25.70;62.40
56478;DHT22;42382;53.210;5.772;2023-07-28T11:57:51;25.70;62.00
56478;DHT22;42382;53.210;5.772;2023-07-28T12:00:18;25.70;62.30
56478;DHT22;42382;53.210;5.772;2023-07-28T12:02:44;25.80;63.00
56478;DHT22;42382;53.210;5.772;2023-07-28T12:05:14;25.90;63.50
56478;DHT22;42382;53.210;5.772;2023-07-28T12:07:40;25.90;62.30
56478;DHT22;42382;53.210;5.772;2023-07-28T12:10:07;25.80;62.20
56478;DHT22;42382;53.210;5.772;2023-07-28T12:13:04;25.90;62.40
56478;DHT22;42382;53.210;5.772;2023-07-28T12:15:30;25.90;62.10
56478;DHT22;42382;53.210;5.772;2023-07-28T12:18:15;25.80;60.70
56478;DHT22;42382;53.210;5.772;2023-07-28T12:20:49;25.80;61.70
56478;DHT22;42382;53.210;5.772;2023-07-28T12:23:20;25.80;62.20
56478;DHT22;42382;53.210;5.772;2023-07-28T12:25:47;25.70;60.90
56478;DHT22;42382;53.210;5.772;2023-07-28T12:28:13;25.60;61.00
56478;DHT22;42382;53.210;5.772;2023-07-28T12:30:38;25.50;61.40
56478;DHT22;42382;53.210;5.772;2023-07-28T12:33:05;25.60;62.60
56478;DHT22;42382;53.210;5.772;2023-07-28T12:35:32;25.80;62.50
56478;DHT22;42382;53.210;5.772;2023-07-28T12:38:03;25.90;62.30
56478;DHT22;42382;53.210;5.772;2023-07-28T12:40:32;26.00;62.10
56478;DHT22;42382;53.210;5.772;2023-07-28T12:43:01;25.90;60.20
56478;DHT22;42382;53.210;5.772;2023-07-28T12:45:27;25.90;60.30
56478;DHT22;42382;53.210;5.772;2023-07-28T12:47:53;25.80;59.60
56478;DHT22;42382;53.210;5.772;2023-07-28T12:50:22;25.80;59.60
56478;DHT22;42382;53.210;5.772;2023-07-28T12:52:49;25.80;60.90
56478;DHT22;42382;53.210;5.772;2023-07-28T12:55:16;25.80;60.80
56478;DHT22;42382;53.210;5.772;2023-07-28T12:57:42;25.80;60.80
56478;DHT22;42382;53.210;5.772;2023-07-28T13:00:08;25.80;60.50
56478;DHT22;42382;53.210;5.772;2023-07-28T13:02:42;25.70;61.00
56478;DHT22;42382;53.210;5.772;2023-07-28T13:05:09;25.70;60.30
56478;DHT22;42382;53.210;5.772;2023-07-28T13:07:38;25.70;61.20
56478;DHT22;42382;53.210;5.772;2023-07-28T13:10:07;25.70;61.30
56478;DHT22;42382;53.210;5.772;2023-07-28T13:12:34;25.60;60.80
56478;DHT22;42382;53.210;5.772;2023-07-28T13:15:00;25.60;61.70
56478;DHT22;42382;53.210;5.772;2023-07-28T13:17:26;25.60;62.10
56478;DHT22;42382;53.210;5.772;2023-07-28T13:19:51;25.60;61.40
56478;DHT22;42382;53.210;5.772;2023-07-28T13:22:17;25.70;61.80
56478;DHT22;42382;53.210;5.772;2023-07-28T13:24:43;25.80;60.00
56478;DHT22;42382;53.210;5.772;2023-07-28T13:27:09;25.70;61.90
56478;DHT22;42382;53.210;5.772;2023-07-28T13:29:34;25.80;62.60
56478;DHT22;42382;53.210;5.772;2023-07-28T13:32:00;25.70;60.90
56478;DHT22;42382;53.210;5.772;2023-07-28T13:34:26;25.60;60.40
56478;DHT22;42382;53.210;5.772;2023-07-28T13:36:53;25.60;61.30
56478;DHT22;42382;53.210;5.772;2023-07-28T13:39:19;25.40;60.10
56478;DHT22;42382;53.210;5.772;2023-07-28T13:41:44;25.20;61.20
56478;DHT22;42382;53.210;5.772;2023-07-28T13:44:10;25.10;61.40
56478;DHT22;42382;53.210;5.772;2023-07-28T13:46:36;24.90;62.50
56478;DHT22;42382;53.210;5.772;2023-07-28T13:49:02;24.90;63.10
56478;DHT22;42382;53.210;5.772;2023-07-28T13:51:27;24.80;63.10
56478;DHT22;42382;53.210;5.772;2023-07-28T13:53:53;24.90;63.80
56478;DHT22;42382;53.210;5.772;2023-07-28T13:56:19;24.90;63.30
56478;DHT22;42382;53.210;5.772;2023-07-28T13:58:44;24.90;62.60
56478;DHT22;42382;53.210;5.772;2023-07-28T14:01:10;25.10;62.80
56478;DHT22;42382;53.210;5.772;2023-07-28T14:03:35;25.20;63.10
56478;DHT22;42382;53.210;5.772;2023-07-28T14:06:01;25.30;63.30
56478;DHT22;42382;53.210;5.772;2023-07-28T14:08:27;25.30;62.90
56478;DHT22;42382;53.210;5.772;2023-07-28T14:10:52;25.30;63.00
56478;DHT22;42382;53.210;5.772;2023-07-28T14:13:18;25.30;62.80
56478;DHT22;42382;53.210;5.772;2023-07-28T14:15:44;25.30;63.30
56478;DHT22;42382;53.210;5.772;2023-07-28T14:18:09;25.30;63.20
56478;DHT22;42382;53.210;5.772;2023-07-28T14:20:35;25.20;62.90
56478;DHT22;42382;53.210;5.772;2023-07-28T14:23:01;25.20;63.70
56478;DHT22;42382;53.210;5.772;2023-07-28T14:25:27;25.20;63.70
56478;DHT22;42382;53.210;5.772;2023-07-28T14:27:52;25.30;63.90
56478;DHT22;42382;53.210;5.772;2023-07-28T14:30:18;25.40;63.70
56478;DHT22;42382;53.210;5.772;2023-07-28T14:32:44;25.30;63.10
56478;DHT22;42382;53.210;5.772;2023-07-28T14:35:09;25.20;62.90
56478;DHT22;42382;53.210;5.772;2023-07-28T14:37:35;25.10;63.60
56478;DHT22;42382;53.210;5.772;2023-07-28T14:40:01;25.10;63.60
56478;DHT22;42382;53.210;5.772;2023-07-28T14:42:26;25.20;63.10
56478;DHT22;42382;53.210;5.772;2023-07-28T14:44:52;25.30;63.70
56478;DHT22;42382;53.210;5.772;2023-07-28T14:47:17;25.20;63.40
56478;DHT22;42382;53.210;5.772;2023-07-28T14:49:43;25.30;63.70
56478;DHT22;42382;53.210;5.772;2023-07-28T14:52:09;25.40;64.20
56478;DHT22;42382;53.210;5.772;2023-07-28T14:54:35;25.40;64.00
56478;DHT22;42382;53.210;5.772;2023-07-28T14:57:03;25.40;64.00
56478;DHT22;42382;53.210;5.772;2023-07-28T14:59:29;25.40;64.00
56478;DHT22;42382;53.210;5.772;2023-07-28T15:01:57;25.40;64.50
56478;DHT22;42382;53.210;5.772;2023-07-28T15:04:23;25.20;64.80
56478;DHT22;42382;53.210;5.772;2023-07-28T15:06:49;25.20;65.80
56478;DHT22;42382;53.210;5.772;2023-07-28T15:09:14;25.30;66.00
56478;DHT22;42382;53.210;5.772;2023-07-28T15:11:44;25.40;65.60
56478;DHT22;42382;53.210;5.772;2023-07-28T15:14:09;25.20;66.40
56478;DHT22;42382;53.210;5.772;2023-07-28T15:16:35;25.00;66.50
56478;DHT22;42382;53.210;5.772;2023-07-28T15:19:00;24.90;67.10
56478;DHT22;42382;53.210;5.772;2023-07-28T15:21:26;24.80;67.30
56478;DHT22;42382;53.210;5.772;2023-07-28T15:23:58;24.90;68.20
56478;DHT22;42382;53.210;5.772;2023-07-28T15:26:24;24.90;68.60
56478;DHT22;42382;53.210;5.772;2023-07-28T15:28:50;25.00;68.40
56478;DHT22;42382;53.210;5.772;2023-07-28T15:31:16;25.00;68.40
56478;DHT22;42382;53.210;5.772;2023-07-28T15:33:41;25.10;68.20
56478;DHT22;42382;53.210;5.772;2023-07-28T15:36:07;24.90;68.80
56478;DHT22;42382;53.210;5.772;2023-07-28T15:38:33;24.90;69.20
56478;DHT22;42382;53.210;5.772;2023-07-28T15:40:58;24.80;69.10
56478;DHT22;42382;53.210;5.772;2023-07-28T15:43:27;24.40;69.80
56478;DHT22;42382;53.210;5.772;2023-07-28T15:45:53;24.30;70.50